Time;durP1;ratioP1;P1;durP2;ratioP2;P2;SDS_P1;SDS_P2;PMS_P1;PMS_P2;Temp;Humidity;BMP_temperature;BMP_pressure;BME280_temperature;BME280_humidity;BME280_pressure;Samples;Min_cycle;Max_cycle;Signal;HPM_P1;HPM_P2
2022/05/01 00:06:56;;;;;;;11.10;5.83;;;11.10;56.90;;;;;;4991821;22;20683;-96
2022/05/01 00:09:44;;;;;;;10.47;6.27;;;11.10;56.70;;;;;;5014317;28;20232;-96
2022/05/01 00:12:16;;;;;;;12.07;5.87;;;11.10;56.80;;;;;;5009904;28;20202;-96
2022/05/01 00:18:45;;;;;;;;;;;;;;;;;;;;;
2022/05/01 00:21:33;;;;;;;12.53;6.90;;;11.00;57.00;;;;;;5011627;28;20216;-96
2022/05/01 00:24:20;;;;;;;15.27;7.03;;;10.90;57.40;;;;;;5013746;28;20194;-96
2022/05/01 00:27:32;;;;;;;18.20;7.80;;;10.90;57.20;;;;;;5008346;28;20302;-96
2022/05/01 00:30:17;;;;;;;11.17;6.30;;;10.90;57.70;;;;;;5002402;28;20197;-96
2022/05/01 00:41:30;;;;;;;13.03;6.87;;;10.70;57.50;;;;;;4993017;28;20215;-96
2022/05/01 00:44:48;;;;;;;14.40;6.43;;;10.70;58.00;;;;;;4994675;28;20206;-96
2022/05/01 00:51:14;;;;;;;10.97;6.03;;;10.60;58.10;;;;;;4990644;28;20206;-96
2022/05/01 00:53:53;;;;;;;11.70;6.50;;;10.60;57.80;;;;;;4982414;28;20216;-96
2022/05/01 00:56:48;;;;;;;13.80;6.67;;;10.60;57.80;;;;;;4996319;28;20289;-96
2022/05/01 00:59:59;;;;;;;11.90;6.50;;;10.60;58.60;;;;;;4981388;28;20718;-96
2022/05/01 01:02:31;;;;;;;13.27;6.37;;;10.50;58.30;;;;;;4990937;28;20233;-95
2022/05/01 01:08:22;;;;;;;9.47;5.87;;;10.50;58.10;;;;;;5041742;22;20247;-96
2022/05/01 01:11:26;;;;;;;17.37;7.33;;;10.50;57.80;;;;;;5018104;28;20201;-96
2022/05/01 01:16:48;;;;;;;14.97;7.07;;;10.40;57.80;;;;;;5021064;28;20344;-96
2022/05/01 01:19:27;;;;;;;15.97;8.13;;;10.40;58.20;;;;;;5017130;28;20224;-96
2022/05/01 01:21:59;;;;;;;18.80;8.03;;;10.40;58.30;;;;;;5037107;28;20197;-96
2022/05/01 01:24:26;;;;;;;12.00;6.00;;;10.40;58.50;;;;;;5035901;28;20212;-96
2022/05/01 01:33:15;;;;;;;9.37;5.70;;;10.30;57.60;;;;;;5019167;28;20209;-96
2022/05/01 01:38:52;;;;;;;18.63;6.53;;;10.20;58.20;;;;;;5006637;28;21378;-96
2022/05/01 01:41:26;;;;;;;9.37;5.73;;;10.20;58.00;;;;;;5027057;28;20199;-95
2022/05/01 01:44:00;;;;;;;11.60;6.03;;;10.20;58.10;;;;;;5031583;28;20199;-96
2022/05/01 01:46:30;;;;;;;8.77;5.27;;;10.10;58.20;;;;;;5033292;28;20327;-95
2022/05/01 01:48:58;;;;;;;15.37;7.00;;;10.10;58.20;;;;;;5027349;28;20227;-96
2022/05/01 01:51:31;;;;;;;7.63;4.87;;;10.00;58.20;;;;;;5036523;28;20198;-95
2022/05/01 01:54:03;;;;;;;9.10;5.07;;;10.00;58.40;;;;;;5021243;28;20201;-95
2022/05/01 01:56:33;;;;;;;10.27;5.43;;;10.00;58.40;;;;;;5035408;28;20200;-95
2022/05/01 01:59:01;;;;;;;10.97;6.23;;;9.90;60.00;;;;;;5032135;28;20283;-95
2022/05/01 02:01:29;;;;;;;13.13;6.37;;;9.90;59.50;;;;;;5024933;28;20211;-96
2022/05/01 02:03:56;;;;;;;10.93;6.30;;;9.80;59.50;;;;;;5036249;28;20201;-95
2022/05/01 02:06:28;;;;;;;15.83;7.73;;;9.80;59.80;;;;;;5024735;28;20236;-95
2022/05/01 02:09:06;;;;;;;12.07;6.37;;;9.80;60.00;;;;;;5024505;28;20222;-95
2022/05/01 02:11:42;;;;;;;10.47;5.27;;;9.80;60.50;;;;;;5015286;28;20197;-95
2022/05/01 02:14:14;;;;;;;12.00;6.20;;;9.70;60.40;;;;;;5033581;28;20205;-95
2022/05/01 02:21:34;;;;;;;20.23;8.50;;;9.70;60.90;;;;;;5073058;23;20261;-96
2022/05/01 02:26:31;;;;;;;18.40;7.27;;;9.60;60.30;;;;;;4983789;28;20265;-96
2022/05/01 02:29:02;;;;;;;11.60;5.80;;;9.60;60.30;;;;;;4988445;28;20220;-96
2022/05/01 02:34:16;;;;;;;9.40;6.00;;;9.50;60.60;;;;;;4998181;28;20199;-96
2022/05/01 02:36:44;;;;;;;16.60;8.03;;;9.50;60.40;;;;;;4999143;28;20288;-96
2022/05/01 02:39:13;;;;;;;9.30;5.73;;;9.50;60.30;;;;;;4998835;28;20276;-96
2022/05/01 02:41:43;;;;;;;14.80;6.90;;;9.50;60.50;;;;;;4997511;28;20213;-95
2022/05/01 02:44:11;;;;;;;7.63;5.53;;;9.40;60.60;;;;;;4981475;28;20214;-96
2022/05/01 02:46:40;;;;;;;12.93;6.87;;;9.40;60.40;;;;;;4981030;28;20218;-96
2022/05/01 02:49:08;;;;;;;10.03;5.90;;;9.40;60.60;;;;;;4981425;28;20215;-95
2022/05/01 02:51:36;;;;;;;10.20;6.00;;;9.30;60.60;;;;;;4998632;28;20213;-96
2022/05/01 02:54:07;;;;;;;14.47;6.83;;;9.30;60.70;;;;;;5001654;28;20205;-95
2022/05/01 02:56:55;;;;;;;10.50;5.53;;;9.30;60.70;;;;;;5011307;28;20220;-94
2022/05/01 02:59:26;;;;;;;10.30;5.50;;;9.30;61.20;;;;;;5006480;28;20228;-95
2022/05/01 03:05:26;;;;;;;14.33;5.53;;;9.20;61.00;;;;;;4974862;28;20296;-96
2022/05/01 03:08:00;;;;;;;12.17;5.93;;;9.20;61.00;;;;;;4985343;28;20234;-96
2022/05/01 03:13:21;;;;;;;12.83;6.87;;;9.10;60.70;;;;;;5014159;28;20204;-95
2022/05/01 03:15:58;;;;;;;11.33;6.67;;;9.10;60.40;;;;;;5005372;28;20226;-95
2022/05/01 03:24:15;;;;;;;13.37;6.37;;;9.00;60.80;;;;;;5000711;28;20207;-96
2022/05/01 03:26:44;;;;;;;11.37;6.37;;;9.00;60.80;;;;;;5004469;28;20230;-96
2022/05/01 03:29:16;;;;;;;9.47;6.23;;;9.00;60.90;;;;;;5003336;28;20703;-96
2022/05/01 03:32:22;;;;;;;15.07;7.10;;;8.90;60.80;;;;;;5004069;28;20204;-96
2022/05/01 03:34:53;;;;;;;10.60;5.67;;;8.90;61.30;;;;;;5000075;28;20206;-96
2022/05/01 03:37:28;;;;;;;9.03;5.47;;;8.90;60.80;;;;;;4983747;28;20290;-96
2022/05/01 03:39:58;;;;;;;12.77;6.67;;;8.90;61.20;;;;;;4999437;28;20589;-96
2022/05/01 03:42:30;;;;;;;9.60;5.80;;;8.80;61.40;;;;;;5009371;28;20205;-95
2022/05/01 03:45:41;;;;;;;15.00;6.70;;;8.80;61.40;;;;;;5010837;28;20415;-96
2022/05/01 03:48:23;;;;;;;12.07;6.53;;;8.80;62.00;;;;;;4994951;28;20239;-96
2022/05/01 03:51:00;;;;;;;7.57;5.17;;;8.70;61.60;;;;;;5002867;28;20213;-96
2022/05/01 03:53:40;;;;;;;14.70;6.83;;;8.70;61.50;;;;;;5004183;28;20258;-96
2022/05/01 03:56:10;;;;;;;12.77;6.40;;;8.70;61.40;;;;;;5001567;28;20208;-96
2022/05/01 03:58:41;;;;;;;9.57;5.77;;;8.60;61.40;;;;;;5003687;28;20240;-95
2022/05/01 04:01:17;;;;;;;8.57;6.10;;;8.60;61.50;;;;;;4997834;28;20210;-96
2022/05/01 04:03:49;;;;;;;9.67;5.97;;;8.60;61.90;;;;;;5002891;28;20209;-95
2022/05/01 04:06:16;;;;;;;9.63;6.37;;;8.60;61.80;;;;;;4995777;28;20221;-95
2022/05/01 04:08:44;;;;;;;15.50;7.47;;;8.60;61.60;;;;;;5011584;28;20227;-96
2022/05/01 04:11:11;;;;;;;17.57;8.00;;;8.60;61.70;;;;;;5004765;28;20304;-96
2022/05/01 04:13:39;;;;;;;12.27;6.40;;;8.60;61.90;;;;;;4998626;28;20240;-95
2022/05/01 04:16:07;;;;;;;12.00;6.93;;;8.50;61.90;;;;;;4999521;28;20214;-95
2022/05/01 04:18:35;;;;;;;11.53;6.17;;;8.50;62.20;;;;;;4998469;28;20260;-95
2022/05/01 04:23:47;;;;;;;13.90;7.13;;;8.50;62.70;;;;;;5043946;23;20240;-95
2022/05/01 04:26:21;;;;;;;11.53;7.37;;;8.50;62.50;;;;;;4995956;28;20271;-94
2022/05/01 04:31:39;;;;;;;13.20;6.87;;;8.50;62.70;;;;;;4993623;28;20209;-95
2022/05/01 04:34:09;;;;;;;12.73;6.73;;;8.50;63.10;;;;;;4978301;28;20226;-94
2022/05/01 04:36:39;;;;;;;12.77;7.00;;;8.50;63.00;;;;;;4987781;28;20210;-94
2022/05/01 04:39:08;;;;;;;14.77;7.53;;;8.50;63.10;;;;;;4995852;28;20234;-95
2022/05/01 04:41:38;;;;;;;15.23;7.60;;;8.50;63.20;;;;;;4992435;28;20207;-95
2022/05/01 04:44:05;;;;;;;11.97;7.00;;;8.50;63.10;;;;;;4996351;28;20299;-95
2022/05/01 04:46:32;;;;;;;11.50;6.93;;;8.50;62.90;;;;;;4994408;28;20308;-94
2022/05/01 04:51:52;;;;;;;9.53;6.87;;;8.40;63.50;;;;;;4989689;23;20238;-94
2022/05/01 04:54:23;;;;;;;8.53;6.43;;;8.50;63.20;;;;;;4995300;28;20205;-94
2022/05/01 04:57:09;;;;;;;16.70;8.03;;;8.40;63.50;;;;;;4990018;28;20229;-93
2022/05/01 04:59:37;;;;;;;15.50;7.43;;;8.50;64.00;;;;;;4993946;28;20232;-95
2022/05/01 05:02:05;;;;;;;12.40;7.23;;;8.40;63.60;;;;;;5016852;28;20217;-92
2022/05/01 05:07:41;;;;;;;8.07;6.10;;;8.40;64.20;;;;;;4986598;28;20236;-93
2022/05/01 05:10:11;;;;;;;9.57;6.37;;;8.50;64.00;;;;;;4995390;28;20270;-93
2022/05/01 05:12:42;;;;;;;10.37;6.50;;;8.50;64.40;;;;;;4993679;28;20267;-93
2022/05/01 05:15:11;;;;;;;20.50;9.00;;;8.40;64.10;;;;;;5006367;28;20198;-94
2022/05/01 05:17:45;;;;;;;11.50;6.53;;;8.50;64.60;;;;;;5013622;28;20212;-95
2022/05/01 05:20:15;;;;;;;13.93;7.73;;;8.50;64.70;;;;;;4996215;28;20856;-93
2022/05/01 05:22:42;;;;;;;12.20;7.50;;;8.60;65.00;;;;;;5009570;28;20207;-92
2022/05/01 05:25:15;;;;;;;14.10;7.40;;;8.60;64.90;;;;;;4994709;28;20212;-93
2022/05/01 05:27:42;;;;;;;15.90;8.03;;;8.60;65.30;;;;;;4992005;28;20232;-93
2022/05/01 05:30:13;;;;;;;17.70;8.50;;;8.60;64.90;;;;;;4993431;28;20197;-93
2022/05/01 05:32:41;;;;;;;20.70;9.43;;;8.60;66.10;;;;;;4992430;28;20205;-92
2022/05/01 05:35:13;;;;;;;11.13;7.47;;;8.60;65.10;;;;;;4993141;28;20813;-92
2022/05/01 05:37:40;;;;;;;16.23;8.13;;;8.70;65.00;;;;;;4993854;28;20198;-94
2022/05/01 05:40:08;;;;;;;12.07;7.47;;;8.70;65.00;;;;;;5003302;28;20210;-94
2022/05/01 05:42:41;;;;;;;20.30;9.77;;;8.70;65.40;;;;;;5010850;28;20202;-93
2022/05/01 05:45:12;;;;;;;14.17;8.10;;;8.70;66.60;;;;;;4976603;28;20208;-93
2022/05/01 05:47:40;;;;;;;12.53;8.37;;;8.80;65.60;;;;;;4985740;28;20218;-94
2022/05/01 05:50:09;;;;;;;13.43;7.50;;;8.80;65.70;;;;;;4962147;28;20210;-93
2022/05/01 05:52:37;;;;;;;12.47;8.00;;;8.80;65.90;;;;;;4976622;28;20423;-92
2022/05/01 05:55:09;;;;;;;14.47;8.57;;;8.90;66.30;;;;;;4991646;28;20651;-92
2022/05/01 05:57:36;;;;;;;11.77;8.03;;;8.90;66.30;;;;;;4994318;28;20214;-94
2022/05/01 06:00:15;;;;;;;13.63;8.70;;;9.00;66.50;;;;;;4988034;28;20207;-94
2022/05/01 06:02:50;;;;;;;10.47;8.37;;;9.00;67.70;;;;;;5020024;28;20211;-94
2022/05/01 06:05:18;;;;;;;13.97;8.60;;;9.10;67.90;;;;;;5002032;28;20205;-94
2022/05/01 06:07:46;;;;;;;11.60;7.73;;;9.10;67.70;;;;;;4995829;28;20241;-94
2022/05/01 06:10:14;;;;;;;12.93;8.53;;;9.20;68.30;;;;;;4993301;28;20256;-95
2022/05/01 06:12:46;;;;;;;11.70;8.23;;;9.30;68.40;;;;;;5004683;28;20265;-94
2022/05/01 06:15:17;;;;;;;11.23;8.97;;;9.40;69.10;;;;;;4999928;28;20198;-95
2022/05/01 06:17:44;;;;;;;16.07;9.70;;;9.50;69.20;;;;;;4997866;28;20202;-95
2022/05/01 06:20:17;;;;;;;15.20;9.53;;;9.60;69.00;;;;;;4995405;28;20206;-95
2022/05/01 06:25:56;;;;;;;12.50;8.37;;;9.80;69.50;;;;;;4980091;28;20224;-94
2022/05/01 06:31:33;;;;;;;15.43;9.07;;;10.10;70.00;;;;;;5036549;23;20246;-95
2022/05/01 06:34:01;;;;;;;13.93;8.27;;;10.20;69.30;;;;;;5018862;28;20209;-95
2022/05/01 06:36:33;;;;;;;12.73;8.13;;;10.30;68.90;;;;;;5016597;28;20282;-93
2022/05/01 06:39:02;;;;;;;18.47;9.30;;;10.50;69.00;;;;;;5018372;28;20252;-94
2022/05/01 06:41:30;;;;;;;20.07;10.83;;;10.60;69.10;;;;;;5014809;28;20673;-94
2022/05/01 06:43:59;;;;;;;16.90;9.00;;;10.80;68.80;;;;;;5011544;28;20210;-95
2022/05/01 06:50:12;;;;;;;13.00;8.60;;;11.00;69.30;;;;;;5006500;28;20245;-95
2022/05/01 06:53:12;;;;;;;17.07;9.93;;;11.20;68.40;;;;;;5017875;28;20240;-94
2022/05/01 06:58:20;;;;;;;13.90;8.43;;;11.50;68.40;;;;;;5063270;23;20295;-95
2022/05/01 07:00:49;;;;;;;13.77;8.10;;;11.60;67.60;;;;;;5001121;28;20210;-94
2022/05/01 07:03:17;;;;;;;14.77;8.37;;;11.70;67.40;;;;;;5008356;28;20213;-94
2022/05/01 07:05:45;;;;;;;13.30;8.10;;;11.90;67.60;;;;;;5002938;28;20254;-95
2022/05/01 07:08:13;;;;;;;14.00;7.73;;;12.00;67.30;;;;;;5002322;28;20221;-94
2022/05/01 07:13:55;;;;;;;16.43;9.73;;;12.20;66.70;;;;;;4979271;28;20273;-95
2022/05/01 07:16:27;;;;;;;18.80;9.87;;;12.30;66.60;;;;;;4990376;28;20195;-95
2022/05/01 07:18:58;;;;;;;19.20;10.37;;;12.40;66.70;;;;;;5003893;28;20199;-94
2022/05/01 07:21:25;;;;;;;14.20;8.23;;;12.50;66.90;;;;;;5009988;28;20212;-95
2022/05/01 07:23:58;;;;;;;12.57;9.07;;;12.50;66.60;;;;;;5003601;28;20191;-95
2022/05/01 07:26:33;;;;;;;11.77;8.00;;;12.60;67.20;;;;;;4998707;28;20207;-95
2022/05/01 07:29:02;;;;;;;12.13;8.07;;;12.70;66.80;;;;;;4997747;28;20238;-94
2022/05/01 07:34:27;;;;;;;14.13;8.87;;;12.80;67.00;;;;;;4983885;28;20709;-92
2022/05/01 07:36:54;;;;;;;14.17;8.93;;;12.90;67.00;;;;;;4999389;28;20590;-93
2022/05/01 07:39:25;;;;;;;19.23;9.63;;;13.00;66.30;;;;;;4995364;28;20342;-92
2022/05/01 07:41:54;;;;;;;14.60;7.40;;;13.00;66.30;;;;;;5001479;28;20669;-94
2022/05/01 07:44:27;;;;;;;11.30;8.00;;;13.10;66.30;;;;;;4991853;28;20723;-94
2022/05/01 07:46:59;;;;;;;10.53;7.87;;;13.20;66.20;;;;;;4985214;28;20207;-94
2022/05/01 07:49:28;;;;;;;10.37;7.40;;;13.30;66.10;;;;;;4974366;28;20257;-94
2022/05/01 07:51:56;;;;;;;10.83;8.23;;;13.30;66.10;;;;;;4974844;28;20256;-94
2022/05/01 07:57:07;;;;;;;16.80;9.63;;;13.40;65.80;;;;;;4982964;28;20220;-95
2022/05/01 07:59:37;;;;;;;14.43;8.67;;;13.50;65.70;;;;;;4996283;28;20297;-95
2022/05/01 08:02:04;;;;;;;13.17;9.20;;;13.50;65.60;;;;;;5013437;28;20197;-96
2022/05/01 08:04:33;;;;;;;16.20;9.70;;;13.50;65.20;;;;;;5001532;28;20204;-96
2022/05/01 08:10:07;;;;;;;15.07;9.93;;;13.60;65.40;;;;;;4985548;28;20267;-96
2022/05/01 08:16:17;;;;;;;10.00;8.20;;;13.70;65.30;;;;;;4983074;28;20579;-96
2022/05/01 08:21:33;;;;;;;13.37;9.37;;;13.90;65.00;;;;;;4990429;28;20324;-96
2022/05/01 08:24:01;;;;;;;11.47;8.10;;;14.10;65.30;;;;;;4976492;28;20218;-96
2022/05/01 08:26:31;;;;;;;14.53;9.40;;;14.20;65.20;;;;;;4983675;28;20209;-96
2022/05/01 08:29:05;;;;;;;15.43;8.93;;;14.30;64.80;;;;;;4986162;28;20257;-96
2022/05/01 08:34:16;;;;;;;9.27;7.57;;;14.50;64.10;;;;;;4993546;28;20313;-95
2022/05/01 08:40:29;;;;;;;11.23;7.60;;;14.70;63.30;;;;;;5004177;28;20226;-95
2022/05/01 08:50:02;;;;;;;15.07;9.00;;;15.00;61.60;;;;;;5004483;28;20206;-94
2022/05/01 08:53:20;;;;;;;16.70;8.70;;;15.00;61.40;;;;;;5015695;28;20219;-96
2022/05/01 08:59:02;;;;;;;13.60;8.20;;;15.10;60.60;;;;;;5072917;23;20237;-95
2022/05/01 09:01:36;;;;;;;11.67;8.70;;;15.10;60.50;;;;;;5020557;28;20188;-94
2022/05/01 09:04:14;;;;;;;15.60;8.73;;;15.20;60.50;;;;;;5032900;28;20215;-94
2022/05/01 09:12:49;;;;;;;16.57;10.00;;;15.20;60.50;;;;;;5122215;27;20562;-96
2022/05/01 09:17:28;;;;;;;10.50;8.17;;;15.20;59.60;;;;;;5094253;28;20209;-93
2022/05/01 09:26:03;;;;;;;22.37;10.87;;;15.30;59.30;;;;;;5071197;22;20300;-94
2022/05/01 09:28:31;;;;;;;17.33;9.50;;;15.30;59.40;;;;;;5070224;28;20235;-95
2022/05/01 09:31:01;;;;;;;17.10;10.07;;;15.30;59.40;;;;;;5079677;28;20199;-95
2022/05/01 09:33:34;;;;;;;17.67;9.80;;;15.30;59.40;;;;;;5059193;28;20211;-94
2022/05/01 09:36:01;;;;;;;13.33;9.33;;;15.30;59.10;;;;;;5067382;28;20611;-95
2022/05/01 09:38:28;;;;;;;16.90;10.07;;;15.40;59.20;;;;;;5073598;28;20664;-93
2022/05/01 09:41:01;;;;;;;15.90;9.90;;;15.40;59.10;;;;;;5071024;28;20257;-96
2022/05/01 09:43:47;;;;;;;14.97;8.97;;;15.40;58.50;;;;;;5073225;28;20198;-94
2022/05/01 09:46:18;;;;;;;13.30;8.17;;;15.40;58.50;;;;;;5075859;28;20204;-95
2022/05/01 09:49:14;;;;;;;13.07;8.40;;;15.40;58.10;;;;;;5073118;28;20269;-94
2022/05/01 09:51:49;;;;;;;9.77;7.40;;;15.50;57.40;;;;;;5062094;28;20203;-96
2022/05/01 09:57:37;;;;;;;12.20;8.47;;;15.50;58.00;;;;;;5026050;28;20206;-95
2022/05/01 10:00:11;;;;;;;15.27;9.77;;;15.50;58.00;;;;;;5061704;28;20200;-94
2022/05/01 10:02:39;;;;;;;17.60;10.43;;;15.50;57.80;;;;;;5060813;28;20200;-96
2022/05/01 10:05:41;;;;;;;9.53;7.57;;;15.50;58.00;;;;;;5056574;28;20200;-94
2022/05/01 10:08:14;;;;;;;10.63;8.07;;;15.50;57.90;;;;;;5051732;28;20258;-95
2022/05/01 10:10:47;;;;;;;17.77;8.97;;;15.60;58.10;;;;;;5062006;28;20265;-94
2022/05/01 10:13:16;;;;;;;14.70;9.47;;;15.60;58.20;;;;;;5057409;28;20201;-93
2022/05/01 10:18:49;;;;;;;13.87;8.70;;;15.60;57.60;;;;;;5010858;28;20204;-94
2022/05/01 10:21:29;;;;;;;17.67;9.07;;;15.60;57.90;;;;;;5051401;28;20342;-93
2022/05/01 10:24:04;;;;;;;14.43;8.43;;;15.60;57.80;;;;;;5059567;28;20222;-94
2022/05/01 10:26:39;;;;;;;13.07;8.43;;;15.60;58.00;;;;;;5024844;28;20240;-95
2022/05/01 10:32:20;;;;;;;11.50;8.30;;;15.60;58.00;;;;;;5044640;28;20251;-94
2022/05/01 10:32:41;;;;;;;14.33;8.17;;;15.60;57.30;;;;;;5054856;28;20201;-94
2022/05/01 10:39:36;;;;;;;15.90;9.17;;;15.70;57.30;;;;;;5047354;28;20218;-95
2022/05/01 10:42:06;;;;;;;15.00;9.07;;;15.70;57.30;;;;;;5028909;28;20200;-95
2022/05/01 10:44:36;;;;;;;20.23;9.17;;;15.70;57.60;;;;;;5045935;28;20197;-95
2022/05/01 10:47:12;;;;;;;13.70;8.67;;;15.70;57.60;;;;;;5045156;28;20205;-96
2022/05/01 10:49:42;;;;;;;17.37;9.87;;;15.80;57.30;;;;;;5039149;28;20224;-94
2022/05/01 10:52:53;;;;;;;9.63;8.13;;;15.80;56.80;;;;;;5051097;28;20210;-94
2022/05/01 10:55:24;;;;;;;8.17;6.83;;;15.80;56.30;;;;;;5041517;28;20234;-95
2022/05/01 11:11:28;;;;;;;21.17;10.63;;;15.90;57.00;;;;;;5607605;22;15626728;-94
2022/05/01 11:14:02;;;;;;;11.43;8.13;;;16.10;56.50;;;;;;6315405;22;20173;-95
2022/05/01 11:16:51;;;;;;;18.13;11.17;;;16.20;56.20;;;;;;6315880;22;20167;-92
2022/05/01 11:19:20;;;;;;;14.70;9.33;;;16.20;56.10;;;;;;6314682;22;20194;-94
2022/05/01 11:21:49;;;;;;;14.50;9.73;;;16.20;56.70;;;;;;6313253;22;20181;-93
2022/05/01 11:24:37;;;;;;;16.80;8.90;;;16.20;56.50;;;;;;6314511;22;20171;-94
2022/05/01 11:27:16;;;;;;;16.60;10.10;;;16.30;56.60;;;;;;6316112;22;20505;-94
2022/05/01 11:30:22;;;;;;;9.40;7.50;;;16.30;56.10;;;;;;6315797;22;20175;-95
2022/05/01 11:32:52;;;;;;;14.57;9.80;;;16.40;55.90;;;;;;6312327;22;20197;-95
2022/05/01 11:36:12;;;;;;;15.53;10.47;;;16.50;55.70;;;;;;6315388;22;20555;-93
2022/05/01 11:38:53;;;;;;;14.43;9.23;;;16.50;55.30;;;;;;6314283;22;20176;-92
2022/05/01 11:47:55;;;;;;;15.20;9.87;;;16.70;55.20;;;;;;6315485;22;20206;-92
2022/05/01 11:53:21;;;;;;;12.50;9.97;;;16.90;55.30;;;;;;6295556;22;20507;-95
2022/05/01 12:05:04;;;;;;;11.90;9.90;;;17.40;54.60;;;;;;6292618;22;20199;-95
2022/05/01 12:07:56;;;;;;;13.33;9.97;;;17.50;54.20;;;;;;6288256;22;20235;-95
2022/05/01 12:10:27;;;;;;;13.47;9.70;;;17.60;53.70;;;;;;6287450;22;20269;-95
2022/05/01 12:12:55;;;;;;;14.40;10.10;;;17.70;53.90;;;;;;6282406;22;20165;-94
2022/05/01 12:15:46;;;;;;;16.47;10.27;;;17.80;54.20;;;;;;6281029;22;20614;-94
2022/05/01 12:19:08;;;;;;;14.97;9.70;;;17.90;52.50;;;;;;6287458;22;20221;-95
2022/05/01 12:21:45;;;;;;;11.27;9.23;;;18.00;52.90;;;;;;6324469;22;20180;-95
2022/05/01 12:24:19;;;;;;;12.37;9.33;;;18.20;53.60;;;;;;6318961;22;20176;-94
2022/05/01 12:26:56;;;;;;;14.23;10.50;;;18.20;53.10;;;;;;6313938;22;20181;-96
2022/05/01 12:29:33;;;;;;;11.23;9.30;;;18.30;52.90;;;;;;6318030;22;20169;-95
2022/05/01 12:32:10;;;;;;;13.33;9.97;;;18.40;53.10;;;;;;6322029;22;20683;-93
2022/05/01 12:35:09;;;;;;;13.80;10.07;;;18.50;52.30;;;;;;6317241;22;20665;-94
2022/05/01 12:38:00;;;;;;;15.20;10.43;;;18.60;52.00;;;;;;6311576;22;20173;-94
2022/05/01 12:44:05;;;;;;;10.13;8.80;;;18.70;52.00;;;;;;6213489;23;20258;-95
2022/05/01 12:47:38;;;;;;;11.23;9.63;;;18.80;52.40;;;;;;6299099;22;20194;-95
2022/05/01 12:50:24;;;;;;;13.13;9.00;;;18.80;50.90;;;;;;6278704;22;20173;-95
2022/05/01 12:56:42;;;;;;;15.47;10.70;;;18.90;51.00;;;;;;6331284;22;20169;-94
2022/05/01 13:03:19;;;;;;;14.37;10.17;;;19.10;50.60;;;;;;6257992;22;20177;-95
2022/05/01 13:06:00;;;;;;;10.57;8.37;;;19.30;50.60;;;;;;6297797;22;20176;-95
2022/05/01 13:08:35;;;;;;;11.63;9.03;;;19.40;50.60;;;;;;6313798;22;20224;-95
2022/05/01 13:11:25;;;;;;;11.67;9.17;;;19.40;50.70;;;;;;6310491;22;20231;-95
2022/05/01 13:14:45;;;;;;;9.63;8.33;;;19.50;49.90;;;;;;6300956;22;20176;-95
2022/05/01 13:17:18;;;;;;;12.13;9.03;;;19.60;49.70;;;;;;6260716;22;20200;-95
2022/05/01 13:19:45;;;;;;;17.03;10.37;;;19.70;50.00;;;;;;6281302;22;20273;-95
2022/05/01 13:25:38;;;;;;;9.53;7.77;;;19.80;49.40;;;;;;6311885;22;20161;-96
2022/05/01 13:28:13;;;;;;;11.93;8.00;;;19.90;49.80;;;;;;6309180;22;20242;-95
2022/05/01 13:30:43;;;;;;;8.77;7.40;;;19.90;49.80;;;;;;6310400;22;20193;-96
2022/05/01 13:33:23;;;;;;;9.63;8.07;;;20.00;48.10;;;;;;6313920;22;20189;-96
2022/05/01 13:35:55;;;;;;;10.93;8.57;;;20.00;49.00;;;;;;6319008;22;20258;-96
2022/05/01 13:38:28;;;;;;;10.83;8.47;;;20.10;49.20;;;;;;6343077;22;20230;-96
2022/05/01 13:47:18;;;;;;;16.43;8.53;;;20.30;49.60;;;;;;6346169;22;20213;-96
2022/05/01 13:49:56;;;;;;;11.57;9.07;;;20.50;49.30;;;;;;6354612;22;20179;-95
2022/05/01 13:52:49;;;;;;;10.33;7.70;;;20.60;48.70;;;;;;6345281;22;20254;-94
2022/05/01 13:55:28;;;;;;;11.33;9.00;;;20.70;49.20;;;;;;6333176;22;20260;-95
2022/05/01 13:58:20;;;;;;;9.67;7.70;;;20.90;48.50;;;;;;6345105;22;20199;-95
2022/05/01 14:00:50;;;;;;;9.77;7.83;;;21.10;48.70;;;;;;6345526;22;20192;-96
2022/05/01 14:03:31;;;;;;;12.50;8.83;;;21.30;49.30;;;;;;6344679;22;20161;-96
2022/05/01 14:09:27;;;;;;;12.37;8.07;;;21.70;47.30;;;;;;6358037;22;20493;-95
2022/05/01 14:12:03;;;;;;;9.53;7.43;;;21.90;48.20;;;;;;6354856;22;20169;-96
2022/05/01 14:17:17;;;;;;;7.97;6.27;;;22.20;47.30;;;;;;6330020;22;20182;-94
2022/05/01 14:20:35;;;;;;;11.57;8.20;;;22.30;48.50;;;;;;6333584;22;20203;-96
2022/05/01 14:23:13;;;;;;;9.33;7.40;;;22.50;46.90;;;;;;6361040;22;21235;-96
2022/05/01 14:25:40;;;;;;;10.27;7.20;;;22.70;47.10;;;;;;6354458;22;20173;-96
2022/05/01 14:28:51;;;;;;;11.30;8.00;;;22.90;47.60;;;;;;6355619;22;20179;-95
2022/05/01 14:32:03;;;;;;;9.97;7.70;;;23.00;45.70;;;;;;6242014;22;20187;-96
2022/05/01 14:35:02;;;;;;;7.53;6.50;;;23.10;45.80;;;;;;6353962;22;20226;-95
2022/05/01 14:37:51;;;;;;;6.47;5.63;;;23.30;45.70;;;;;;6346876;22;20232;-95
2022/05/01 14:40:35;;;;;;;8.17;5.93;;;23.30;46.30;;;;;;6358473;22;20170;-96
2022/05/01 14:46:28;;;;;;;7.87;6.20;;;23.40;44.80;;;;;;6356818;22;20213;-95
2022/05/01 14:49:16;;;;;;;8.73;7.00;;;23.40;44.50;;;;;;6361618;22;20180;-96
2022/05/01 14:51:59;;;;;;;9.50;6.03;;;23.30;44.70;;;;;;6363188;22;20188;-96
2022/05/01 14:54:50;;;;;;;11.77;7.87;;;23.30;44.70;;;;;;6357608;22;20653;-96
2022/05/01 14:57:20;;;;;;;6.93;6.20;;;23.30;44.80;;;;;;6356888;22;20232;-96
2022/05/01 15:09:03;;;;;;;10.80;8.13;;;23.00;44.00;;;;;;6334782;22;20183;-94
2022/05/01 15:14:42;;;;;;;10.43;6.50;;;22.70;44.40;;;;;;6287844;22;20567;-96
2022/05/01 15:23:43;;;;;;;10.00;7.50;;;22.30;45.20;;;;;;6328933;22;20213;-95
2022/05/01 15:26:13;;;;;;;16.20;8.23;;;22.20;44.90;;;;;;6341248;22;20173;-94
2022/05/01 15:28:41;;;;;;;10.10;6.57;;;22.10;44.80;;;;;;6342576;22;20486;-93
2022/05/01 15:34:19;;;;;;;10.93;6.17;;;21.90;44.60;;;;;;6333021;22;20223;-95
2022/05/01 15:36:51;;;;;;;8.23;5.90;;;21.80;45.20;;;;;;6338880;22;20196;-94
2022/05/01 15:39:28;;;;;;;8.53;6.60;;;21.70;45.00;;;;;;6341131;22;20244;-94
2022/05/01 15:42:41;;;;;;;6.80;6.10;;;21.60;44.90;;;;;;6340721;22;20220;-95
2022/05/01 15:45:10;;;;;;;9.30;6.47;;;21.50;44.70;;;;;;6329839;22;20174;-95
2022/05/01 15:48:03;;;;;;;11.90;6.90;;;21.40;45.20;;;;;;6357106;22;20191;-93
2022/05/01 15:53:44;;;;;;;9.20;6.40;;;21.20;44.90;;;;;;6347021;22;20629;-94
2022/05/01 15:56:12;;;;;;;18.97;7.00;;;21.20;44.90;;;;;;6346791;22;20225;-95
2022/05/01 15:58:39;;;;;;;10.13;6.53;;;21.10;45.50;;;;;;6342016;22;20223;-93
2022/05/01 16:01:11;;;;;;;8.27;6.37;;;21.00;45.30;;;;;;6342885;22;20197;-95
2022/05/01 16:06:56;;;;;;;14.10;7.80;;;20.80;45.00;;;;;;6345582;22;20319;-96
2022/05/01 16:10:01;;;;;;;9.03;6.60;;;20.80;45.40;;;;;;6358496;22;20176;-94
2022/05/01 16:15:56;;;;;;;13.50;8.30;;;20.70;45.70;;;;;;6363244;22;20197;-96
2022/05/01 16:18:39;;;;;;;10.50;7.13;;;20.70;45.60;;;;;;6356003;22;20174;-95
2022/05/01 16:21:28;;;;;;;9.20;7.20;;;20.70;45.80;;;;;;6344199;22;20203;-96
2022/05/01 16:24:09;;;;;;;13.23;7.50;;;20.60;45.50;;;;;;6343848;22;20188;-94
2022/05/01 16:27:02;;;;;;;14.73;7.57;;;20.60;45.50;;;;;;6356754;22;20181;-96
2022/05/01 16:29:43;;;;;;;9.37;6.80;;;20.50;45.20;;;;;;6362262;22;20150;-94
2022/05/01 16:32:21;;;;;;;16.73;7.80;;;20.50;45.50;;;;;;6362975;22;20153;-96
2022/05/01 16:34:54;;;;;;;9.53;6.83;;;20.40;45.40;;;;;;6361040;22;20199;-94
2022/05/01 16:40:58;;;;;;;11.10;7.67;;;20.30;45.70;;;;;;6244236;22;20206;-95
2022/05/01 16:43:35;;;;;;;13.00;7.07;;;20.30;45.90;;;;;;6345883;22;20174;-94
2022/05/01 16:46:04;;;;;;;11.40;6.80;;;20.20;45.90;;;;;;6344358;22;20193;-94
2022/05/01 16:48:41;;;;;;;11.67;7.03;;;20.20;46.20;;;;;;6345097;22;20529;-94
2022/05/01 16:54:00;;;;;;;11.80;8.03;;;20.10;45.90;;;;;;6328264;22;20177;-94
2022/05/01 16:56:54;;;;;;;9.10;6.97;;;20.00;46.10;;;;;;6345887;22;20169;-93
2022/05/01 16:59:30;;;;;;;7.97;6.00;;;20.00;45.80;;;;;;6343413;22;20176;-94
2022/05/01 17:02:18;;;;;;;12.17;5.93;;;19.90;45.80;;;;;;6347231;22;20661;-95
2022/05/01 17:04:55;;;;;;;14.53;7.37;;;19.90;45.70;;;;;;6311952;22;20169;-96
2022/05/01 17:10:55;;;;;;;14.70;7.80;;;19.80;46.00;;;;;;6330667;22;20173;-96
2022/05/01 17:13:49;;;;;;;9.17;6.47;;;19.80;46.40;;;;;;6342777;22;20281;-96
2022/05/01 17:17:19;;;;;;;11.97;6.63;;;19.80;46.00;;;;;;6346053;22;20162;-96
2022/05/01 17:20:06;;;;;;;10.03;6.57;;;19.80;45.80;;;;;;6340780;22;20227;-96
2022/05/01 17:22:41;;;;;;;9.40;5.70;;;19.80;45.80;;;;;;6319618;22;20219;-95
2022/05/01 17:25:40;;;;;;;9.40;6.03;;;19.80;45.80;;;;;;6342746;22;20196;-96
2022/05/01 17:28:11;;;;;;;10.63;6.23;;;19.80;45.70;;;;;;6347030;22;20169;-96
2022/05/01 17:30:52;;;;;;;12.33;7.27;;;19.70;45.70;;;;;;6352352;22;20255;-96
2022/05/01 17:33:23;;;;;;;12.73;7.13;;;19.70;45.40;;;;;;6360672;22;20665;-96
2022/05/01 17:36:06;;;;;;;13.63;8.07;;;19.70;45.50;;;;;;6347358;22;20170;-95
2022/05/01 17:38:36;;;;;;;8.83;5.30;;;19.70;45.40;;;;;;6346556;22;20182;-96